KBFI

Boeing Field / King County International Airport

Seattle, Washington, USA
METAR KBFI 241953Z 30009KT 10SM BKN030 OVC070 07/00 A3012 RMK AO2 SLP199 T00670000
Observed Flight Rules
Feb-24 @ 19:53 UTC (23 minutes ago) Marginal Visual Flight Rules
Wind Visibility Clouds
300° at 9 knots 10 miles
  • Broken at 3,000' AGL
  • Overcast at 7,000' AGL
Temperatures Readings
Current 7°C / 45°F
Dewpoint 0°C / 32°F
Humidity 61%
Altimeter 30.12" Hg
Pressure 1019.9 hPa
Elevation 4
METAR KBFI 241953Z 30009KT 10SM BKN030 OVC070 07/00 A3012 RMK AO2 SLP199 T00670000
Observed Flight Rules
Feb-24 @ 19:53 UTC
(23 minutes ago)
MVFR
Wind Visibility
300° at 9 knots 10 miles
Clouds
  • Broken at 3,000' AGL
  • Overcast at 7,000' AGL
Temperature Dewpoint
7°C / 45°F 0°C / 32°F
Humidity Altimeter Pressure
61% 30.12" Hg 1019.9 hPa